sensor_id;sensor_type;location;lat;lon;timestamp;pressure;altitude;pressure_sealevel;temperature;humidity
55079;BME280;55187;49.496;6.010;2022-09-02T00:00:57;97420.53;;;10.84;100.00
55079;BME280;55187;49.496;6.010;2022-09-02T00:03:27;97431.75;;;10.86;100.00
55079;BME280;55187;49.496;6.010;2022-09-02T00:05:54;97424.56;;;10.80;100.00
55079;BME280;55187;49.496;6.010;2022-09-02T00:08:20;97425.25;;;10.88;100.00
55079;BME280;55187;49.496;6.010;2022-09-02T00:10:46;97421.34;;;10.84;100.00
55079;BME280;55187;49.496;6.010;2022-09-02T00:13:15;97425.63;;;10.85;100.00
55079;BME280;55187;49.496;6.010;2022-09-02T00:15:42;97423.56;;;10.81;100.00
55079;BME280;55187;49.496;6.010;2022-09-02T00:18:08;97425.34;;;10.74;100.00
55079;BME280;55187;49.496;6.010;2022-09-02T00:20:40;97415.78;;;10.73;100.00
55079;BME280;55187;49.496;6.010;2022-09-02T00:23:08;97418.78;;;10.69;100.00
55079;BME280;55187;49.496;6.010;2022-09-02T00:25:36;97411.22;;;10.66;100.00
55079;BME280;55187;49.496;6.010;2022-09-02T00:28:03;97410.25;;;10.74;100.00
55079;BME280;55187;49.496;6.010;2022-09-02T00:30:31;97403.97;;;10.75;100.00
55079;BME280;55187;49.496;6.010;2022-09-02T00:32:58;97404.66;;;10.84;100.00
55079;BME280;55187;49.496;6.010;2022-09-02T00:35:25;97408.16;;;10.91;100.00
55079;BME280;55187;49.496;6.010;2022-09-02T00:37:51;97396.59;;;10.99;100.00
55079;BME280;55187;49.496;6.010;2022-09-02T00:40:18;97403.34;;;11.01;100.00
55079;BME280;55187;49.496;6.010;2022-09-02T00:42:44;97402.97;;;11.11;100.00
55079;BME280;55187;49.496;6.010;2022-09-02T00:45:11;97396.50;;;11.13;100.00
55079;BME280;55187;49.496;6.010;2022-09-02T00:47:41;97404.44;;;11.13;100.00
55079;BME280;55187;49.496;6.010;2022-09-02T00:50:09;97401.16;;;11.11;100.00
55079;BME280;55187;49.496;6.010;2022-09-02T00:52:41;97396.19;;;11.02;100.00
55079;BME280;55187;49.496;6.010;2022-09-02T00:55:14;97402.91;;;10.98;100.00
55079;BME280;55187;49.496;6.010;2022-09-02T00:57:43;97399.25;;;10.99;100.00
55079;BME280;55187;49.496;6.010;2022-09-02T01:00:16;97396.56;;;10.92;100.00
55079;BME280;55187;49.496;6.010;2022-09-02T01:02:50;97391.22;;;10.85;100.00
55079;BME280;55187;49.496;6.010;2022-09-02T01:05:23;97392.63;;;10.81;100.00
55079;BME280;55187;49.496;6.010;2022-09-02T01:07:51;97386.06;;;10.77;100.00
55079;BME280;55187;49.496;6.010;2022-09-02T01:10:23;97389.09;;;10.74;100.00
55079;BME280;55187;49.496;6.010;2022-09-02T01:12:59;97389.06;;;10.67;100.00
55079;BME280;55187;49.496;6.010;2022-09-02T01:15:26;97392.53;;;10.68;100.00
55079;BME280;55187;49.496;6.010;2022-09-02T01:17:55;97387.03;;;10.69;100.00
55079;BME280;55187;49.496;6.010;2022-09-02T01:20:24;97394.50;;;10.59;100.00
55079;BME280;55187;49.496;6.010;2022-09-02T01:22:55;97390.59;;;10.55;100.00
55079;BME280;55187;49.496;6.010;2022-09-02T01:25:27;97400.94;;;10.50;100.00
55079;BME280;55187;49.496;6.010;2022-09-02T01:28:01;97397.88;;;10.53;100.00
55079;BME280;55187;49.496;6.010;2022-09-02T01:30:28;97401.06;;;10.42;100.00
55079;BME280;55187;49.496;6.010;2022-09-02T01:32:55;97404.72;;;10.41;100.00
55079;BME280;55187;49.496;6.010;2022-09-02T01:35:21;97399.75;;;10.31;100.00
55079;BME280;55187;49.496;6.010;2022-09-02T01:37:48;97406.91;;;10.37;100.00
55079;BME280;55187;49.496;6.010;2022-09-02T01:40:16;97403.06;;;10.40;100.00
55079;BME280;55187;49.496;6.010;2022-09-02T01:42:46;97403.03;;;10.33;100.00
55079;BME280;55187;49.496;6.010;2022-09-02T01:45:13;97397.44;;;10.28;100.00
55079;BME280;55187;49.496;6.010;2022-09-02T01:47:40;97396.28;;;10.31;100.00
55079;BME280;55187;49.496;6.010;2022-09-02T01:50:08;97398.47;;;10.27;100.00
55079;BME280;55187;49.496;6.010;2022-09-02T01:52:35;97393.56;;;10.24;100.00
55079;BME280;55187;49.496;6.010;2022-09-02T01:55:03;97393.63;;;10.31;100.00
55079;BME280;55187;49.496;6.010;2022-09-02T01:57:30;97399.28;;;10.27;100.00
55079;BME280;55187;49.496;6.010;2022-09-02T01:59:57;97406.31;;;10.20;100.00
55079;BME280;55187;49.496;6.010;2022-09-02T02:02:23;97391.50;;;10.26;100.00
55079;BME280;55187;49.496;6.010;2022-09-02T02:04:50;97396.50;;;10.14;100.00
55079;BME280;55187;49.496;6.010;2022-09-02T02:07:18;97384.28;;;10.13;100.00
55079;BME280;55187;49.496;6.010;2022-09-02T02:09:51;97389.81;;;10.18;100.00
55079;BME280;55187;49.496;6.010;2022-09-02T02:12:18;97397.75;;;10.18;100.00
55079;BME280;55187;49.496;6.010;2022-09-02T02:14:45;97395.88;;;10.12;100.00
55079;BME280;55187;49.496;6.010;2022-09-02T02:17:11;97394.06;;;10.13;100.00
55079;BME280;55187;49.496;6.010;2022-09-02T02:19:40;97390.78;;;10.11;100.00
55079;BME280;55187;49.496;6.010;2022-09-02T02:22:06;97398.31;;;10.14;100.00
55079;BME280;55187;49.496;6.010;2022-09-02T02:24:33;97398.41;;;10.20;100.00
55079;BME280;55187;49.496;6.010;2022-09-02T02:27:01;97396.88;;;10.11;100.00
55079;BME280;55187;49.496;6.010;2022-09-02T02:29:27;97394.81;;;10.06;100.00
55079;BME280;55187;49.496;6.010;2022-09-02T02:31:53;97401.94;;;10.06;100.00
55079;BME280;55187;49.496;6.010;2022-09-02T02:34:20;97387.44;;;10.02;100.00
55079;BME280;55187;49.496;6.010;2022-09-02T02:36:46;97391.66;;;9.96;100.00
55079;BME280;55187;49.496;6.010;2022-09-02T02:39:13;97395.31;;;9.95;100.00
55079;BME280;55187;49.496;6.010;2022-09-02T02:41:40;97391.03;;;9.94;100.00
55079;BME280;55187;49.496;6.010;2022-09-02T02:44:08;97391.47;;;9.98;100.00
55079;BME280;55187;49.496;6.010;2022-09-02T02:46:36;97395.22;;;9.88;100.00
55079;BME280;55187;49.496;6.010;2022-09-02T02:49:03;97392.78;;;9.87;100.00
55079;BME280;55187;49.496;6.010;2022-09-02T02:51:32;97391.78;;;9.88;100.00
55079;BME280;55187;49.496;6.010;2022-09-02T02:54:00;97393.97;;;9.84;100.00
55079;BME280;55187;49.496;6.010;2022-09-02T02:56:28;97391.94;;;9.86;100.00
55079;BME280;55187;49.496;6.010;2022-09-02T02:58:56;97396.88;;;9.90;100.00
55079;BME280;55187;49.496;6.010;2022-09-02T03:01:25;97399.06;;;9.86;100.00
55079;BME280;55187;49.496;6.010;2022-09-02T03:03:51;97394.41;;;9.88;100.00
55079;BME280;55187;49.496;6.010;2022-09-02T03:06:21;97395.34;;;9.80;100.00
55079;BME280;55187;49.496;6.010;2022-09-02T03:08:47;97390.25;;;9.79;100.00
55079;BME280;55187;49.496;6.010;2022-09-02T03:11:15;97396.91;;;9.75;100.00
55079;BME280;55187;49.496;6.010;2022-09-02T03:13:43;97398.72;;;9.74;100.00
55079;BME280;55187;49.496;6.010;2022-09-02T03:16:09;97398.72;;;9.74;100.00
55079;BME280;55187;49.496;6.010;2022-09-02T03:18:36;97396.91;;;9.75;100.00
55079;BME280;55187;49.496;6.010;2022-09-02T03:21:07;97395.63;;;9.71;100.00
55079;BME280;55187;49.496;6.010;2022-09-02T03:23:34;97399.53;;;9.75;100.00
55079;BME280;55187;49.496;6.010;2022-09-02T03:26:01;97389.53;;;9.70;100.00
55079;BME280;55187;49.496;6.010;2022-09-02T03:28:33;97396.75;;;9.61;100.00
55079;BME280;55187;49.496;6.010;2022-09-02T03:31:02;97395.28;;;9.59;100.00
55079;BME280;55187;49.496;6.010;2022-09-02T03:33:28;97394.88;;;9.55;100.00
55079;BME280;55187;49.496;6.010;2022-09-02T03:35:56;97393.69;;;9.58;100.00
55079;BME280;55187;49.496;6.010;2022-09-02T03:38:24;97390.41;;;9.56;100.00
55079;BME280;55187;49.496;6.010;2022-09-02T03:40:50;97394.59;;;9.50;100.00
55079;BME280;55187;49.496;6.010;2022-09-02T03:43:18;97391.22;;;9.56;100.00
55079;BME280;55187;49.496;6.010;2022-09-02T03:45:44;97394.59;;;9.50;100.00
55079;BME280;55187;49.496;6.010;2022-09-02T03:48:13;97394.78;;;9.49;100.00
55079;BME280;55187;49.496;6.010;2022-09-02T03:50:44;97397.25;;;9.50;100.00
55079;BME280;55187;49.496;6.010;2022-09-02T03:53:23;97391.13;;;9.50;100.00
55079;BME280;55187;49.496;6.010;2022-09-02T03:56:04;97391.50;;;9.47;100.00
55079;BME280;55187;49.496;6.010;2022-09-02T03:58:39;97393.25;;;9.39;100.00
55079;BME280;55187;49.496;6.010;2022-09-02T04:01:07;97388.13;;;9.38;100.00
55079;BME280;55187;49.496;6.010;2022-09-02T04:03:33;97386.06;;;9.33;100.00
55079;BME280;55187;49.496;6.010;2022-09-02T04:06:01;97385.06;;;9.34;100.00
55079;BME280;55187;49.496;6.010;2022-09-02T04:08:28;97378.50;;;9.30;100.00
55079;BME280;55187;49.496;6.010;2022-09-02T04:10:58;97385.31;;;9.24;100.00
55079;BME280;55187;49.496;6.010;2022-09-02T04:13:25;97382.69;;;9.24;100.00
55079;BME280;55187;49.496;6.010;2022-09-02T04:15:52;97378.69;;;9.29;100.00
55079;BME280;55187;49.496;6.010;2022-09-02T04:18:22;97373.50;;;9.20;100.00
55079;BME280;55187;49.496;6.010;2022-09-02T04:20:50;97370.50;;;9.23;100.00
55079;BME280;55187;49.496;6.010;2022-09-02T04:23:17;97369.31;;;9.26;100.00
55079;BME280;55187;49.496;6.010;2022-09-02T04:25:45;97368.50;;;9.26;100.00
55079;BME280;55187;49.496;6.010;2022-09-02T04:28:15;97364.94;;;9.18;100.00
55079;BME280;55187;49.496;6.010;2022-09-02T04:30:42;97371.59;;;9.14;100.00
55079;BME280;55187;49.496;6.010;2022-09-02T04:33:10;97361.84;;;9.15;100.00
55079;BME280;55187;49.496;6.010;2022-09-02T04:35:45;97371.50;;;9.08;100.00
55079;BME280;55187;49.496;6.010;2022-09-02T04:38:16;97367.03;;;9.08;100.00
55079;BME280;55187;49.496;6.010;2022-09-02T04:40:45;97370.22;;;9.03;100.00
55079;BME280;55187;49.496;6.010;2022-09-02T04:43:13;97369.78;;;9.00;100.00
55079;BME280;55187;49.496;6.010;2022-09-02T04:45:42;97359.50;;;9.05;100.00
55079;BME280;55187;49.496;6.010;2022-09-02T04:48:12;97371.59;;;8.99;100.00
55079;BME280;55187;49.496;6.010;2022-09-02T04:50:40;97367.03;;;9.08;100.00
55079;BME280;55187;49.496;6.010;2022-09-02T04:53:08;97357.50;;;9.07;100.00
55079;BME280;55187;49.496;6.010;2022-09-02T04:55:38;97362.22;;;8.97;100.00
55079;BME280;55187;49.496;6.010;2022-09-02T04:58:07;97361.75;;;9.08;100.00
55079;BME280;55187;49.496;6.010;2022-09-02T05:00:37;97369.88;;;9.07;100.00
55079;BME280;55187;49.496;6.010;2022-09-02T05:03:04;97369.50;;;9.10;100.00
55079;BME280;55187;49.496;6.010;2022-09-02T05:05:33;97363.59;;;9.08;100.00
55079;BME280;55187;49.496;6.010;2022-09-02T05:08:00;97360.22;;;9.14;100.00
55079;BME280;55187;49.496;6.010;2022-09-02T05:10:30;97365.59;;;9.06;100.00
55079;BME280;55187;49.496;6.010;2022-09-02T05:12:59;97366.31;;;9.14;100.00
55079;BME280;55187;49.496;6.010;2022-09-02T05:15:26;97358.94;;;9.10;100.00
55079;BME280;55187;49.496;6.010;2022-09-02T05:17:54;97364.22;;;9.10;100.00
55079;BME280;55187;49.496;6.010;2022-09-02T05:20:21;97366.56;;;9.19;100.00
55079;BME280;55187;49.496;6.010;2022-09-02T05:22:49;97370.41;;;9.17;100.00
55079;BME280;55187;49.496;6.010;2022-09-02T05:25:16;97372.31;;;9.23;100.00
55079;BME280;55187;49.496;6.010;2022-09-02T05:27:44;97373.41;;;9.29;100.00
55079;BME280;55187;49.496;6.010;2022-09-02T05:30:11;97362.75;;;9.22;100.00
55079;BME280;55187;49.496;6.010;2022-09-02T05:32:38;97362.91;;;9.35;100.00
55079;BME280;55187;49.496;6.010;2022-09-02T05:35:06;97364.91;;;9.33;100.00
55079;BME280;55187;49.496;6.010;2022-09-02T05:37:34;97359.72;;;9.40;100.00
55079;BME280;55187;49.496;6.010;2022-09-02T05:40:03;97350.25;;;9.45;100.00
55079;BME280;55187;49.496;6.010;2022-09-02T05:42:30;97357.53;;;9.43;100.00
55079;BME280;55187;49.496;6.010;2022-09-02T05:44:58;97350.44;;;9.44;100.00
55079;BME280;55187;49.496;6.010;2022-09-02T05:47:24;97351.56;;;9.56;100.00
55079;BME280;55187;49.496;6.010;2022-09-02T05:49:50;97349.25;;;9.47;100.00
55079;BME280;55187;49.496;6.010;2022-09-02T05:52:17;97344.66;;;9.55;100.00
55079;BME280;55187;49.496;6.010;2022-09-02T05:54:47;97346.28;;;9.56;100.00
55079;BME280;55187;49.496;6.010;2022-09-02T05:57:17;97342.53;;;9.65;100.00
55079;BME280;55187;49.496;6.010;2022-09-02T05:59:53;97334.03;;;9.70;100.00
55079;BME280;55187;49.496;6.010;2022-09-02T06:02:26;97338.97;;;9.73;100.00
55079;BME280;55187;49.496;6.010;2022-09-02T06:04:54;97333.81;;;9.86;100.00
55079;BME280;55187;49.496;6.010;2022-09-02T06:07:22;97335.25;;;9.89;100.00
55079;BME280;55187;49.496;6.010;2022-09-02T06:09:51;97334.94;;;9.99;100.00
55079;BME280;55187;49.496;6.010;2022-09-02T06:12:21;97338.34;;;9.93;100.00
55079;BME280;55187;49.496;6.010;2022-09-02T06:14:49;97333.31;;;9.98;100.00
55079;BME280;55187;49.496;6.010;2022-09-02T06:17:17;97342.03;;;9.98;100.00
55079;BME280;55187;49.496;6.010;2022-09-02T06:19:48;97336.47;;;10.08;100.00
55079;BME280;55187;49.496;6.010;2022-09-02T06:22:15;97342.03;;;10.41;100.00
55079;BME280;55187;49.496;6.010;2022-09-02T06:24:43;97332.44;;;10.34;100.00
55079;BME280;55187;49.496;6.010;2022-09-02T06:27:16;97340.78;;;10.37;100.00
55079;BME280;55187;49.496;6.010;2022-09-02T06:29:46;97332.47;;;10.40;100.00
55079;BME280;55187;49.496;6.010;2022-09-02T06:32:18;97332.31;;;10.48;100.00
55079;BME280;55187;49.496;6.010;2022-09-02T06:34:44;97344.16;;;10.53;100.00
55079;BME280;55187;49.496;6.010;2022-09-02T06:37:11;97334.84;;;10.57;100.00
55079;BME280;55187;49.496;6.010;2022-09-02T06:39:39;97335.81;;;10.56;100.00
55079;BME280;55187;49.496;6.010;2022-09-02T06:42:11;97332.94;;;10.79;100.00
55079;BME280;55187;49.496;6.010;2022-09-02T06:44:46;97338.22;;;10.79;100.00
55079;BME280;55187;49.496;6.010;2022-09-02T06:47:13;97333.16;;;11.19;100.00
55079;BME280;55187;49.496;6.010;2022-09-02T06:49:39;97324.97;;;11.75;100.00
55079;BME280;55187;49.496;6.010;2022-09-02T06:52:06;97330.50;;;11.87;100.00
55079;BME280;55187;49.496;6.010;2022-09-02T06:54:36;97332.81;;;11.90;100.00
55079;BME280;55187;49.496;6.010;2022-09-02T06:57:13;97335.25;;;12.05;100.00
55079;BME280;55187;49.496;6.010;2022-09-02T06:59:39;97333.25;;;13.32;100.00
55079;BME280;55187;49.496;6.010;2022-09-02T07:02:06;97324.78;;;14.75;91.41
55079;BME280;55187;49.496;6.010;2022-09-02T07:04:34;97337.41;;;17.15;83.97
55079;BME280;55187;49.496;6.010;2022-09-02T07:07:06;97330.56;;;18.51;76.03
55079;BME280;55187;49.496;6.010;2022-09-02T07:09:38;97331.41;;;19.95;70.19
55079;BME280;55187;49.496;6.010;2022-09-02T07:12:10;97335.88;;;20.17;62.96
55079;BME280;55187;49.496;6.010;2022-09-02T07:14:45;97335.84;;;21.87;61.77
55079;BME280;55187;49.496;6.010;2022-09-02T07:17:15;97329.16;;;21.99;54.88
55079;BME280;55187;49.496;6.010;2022-09-02T07:19:53;97345.13;;;23.74;53.33
55079;BME280;55187;49.496;6.010;2022-09-02T07:22:26;97333.72;;;23.87;53.59
55079;BME280;55187;49.496;6.010;2022-09-02T07:24:52;97344.38;;;24.52;50.58
55079;BME280;55187;49.496;6.010;2022-09-02T07:27:19;97336.34;;;25.53;46.89
55079;BME280;55187;49.496;6.010;2022-09-02T07:29:48;97334.84;;;25.66;44.99
55079;BME280;55187;49.496;6.010;2022-09-02T07:32:17;97337.31;;;25.87;43.76
55079;BME280;55187;49.496;6.010;2022-09-02T07:34:45;97339.78;;;26.40;42.31
55079;BME280;55187;49.496;6.010;2022-09-02T07:37:17;97329.41;;;26.61;45.02
55079;BME280;55187;49.496;6.010;2022-09-02T07:39:44;97339.47;;;25.42;46.95
55079;BME280;55187;49.496;6.010;2022-09-02T07:42:13;97330.66;;;26.50;43.21
55079;BME280;55187;49.496;6.010;2022-09-02T07:44:41;97335.72;;;26.56;44.01
55079;BME280;55187;49.496;6.010;2022-09-02T07:47:08;97328.94;;;26.73;41.98
55079;BME280;55187;49.496;6.010;2022-09-02T07:49:38;97324.13;;;25.56;44.53
55079;BME280;55187;49.496;6.010;2022-09-02T07:52:06;97331.84;;;26.44;41.35
55079;BME280;55187;49.496;6.010;2022-09-02T07:54:33;97318.69;;;26.70;40.48
55079;BME280;55187;49.496;6.010;2022-09-02T07:57:02;97334.28;;;27.52;42.98
55079;BME280;55187;49.496;6.010;2022-09-02T07:59:29;97331.41;;;27.16;40.00
55079;BME280;55187;49.496;6.010;2022-09-02T08:01:59;97336.06;;;25.74;41.79
55079;BME280;55187;49.496;6.010;2022-09-02T08:04:29;97336.88;;;27.44;39.94
55079;BME280;55187;49.496;6.010;2022-09-02T08:06:57;97339.88;;;27.83;37.71
55079;BME280;55187;49.496;6.010;2022-09-02T08:09:27;97338.31;;;26.81;40.45
55079;BME280;55187;49.496;6.010;2022-09-02T08:11:54;97338.16;;;28.24;37.62
55079;BME280;55187;49.496;6.010;2022-09-02T08:14:24;97332.91;;;26.81;39.19
55079;BME280;55187;49.496;6.010;2022-09-02T08:16:52;97348.03;;;28.56;39.12
55079;BME280;55187;49.496;6.010;2022-09-02T08:19:18;97347.47;;;28.68;37.58
55079;BME280;55187;49.496;6.010;2022-09-02T08:21:45;97346.50;;;28.05;38.50
55079;BME280;55187;49.496;6.010;2022-09-02T08:24:11;97352.28;;;27.90;37.08
55079;BME280;55187;49.496;6.010;2022-09-02T08:26:39;97339.94;;;28.06;36.63
55079;BME280;55187;49.496;6.010;2022-09-02T08:29:06;97339.06;;;27.97;37.38
55079;BME280;55187;49.496;6.010;2022-09-02T08:31:36;97339.31;;;25.76;38.90
55079;BME280;55187;49.496;6.010;2022-09-02T08:34:03;97335.53;;;28.33;37.44
55079;BME280;55187;49.496;6.010;2022-09-02T08:36:30;97338.38;;;28.73;35.82
55079;BME280;55187;49.496;6.010;2022-09-02T08:38:56;97342.81;;;28.91;37.71
55079;BME280;55187;49.496;6.010;2022-09-02T08:44:08;97337.56;;;29.35;35.26
55079;BME280;55187;49.496;6.010;2022-09-02T08:46:36;97345.22;;;29.15;34.48
55079;BME280;55187;49.496;6.010;2022-09-02T08:49:10;97347.34;;;28.73;35.16
55079;BME280;55187;49.496;6.010;2022-09-02T08:51:47;97345.88;;;28.90;37.20
55079;BME280;55187;49.496;6.010;2022-09-02T08:54:43;97333.63;;;27.69;36.94
55079;BME280;55187;49.496;6.010;2022-09-02T08:57:12;97339.94;;;28.06;37.63
55079;BME280;55187;49.496;6.010;2022-09-02T08:59:40;97334.63;;;28.91;34.62
55079;BME280;55187;49.496;6.010;2022-09-02T09:02:30;97330.66;;;29.20;34.59
55079;BME280;55187;49.496;6.010;2022-09-02T09:05:11;97324.94;;;27.95;36.13
55079;BME280;55187;49.496;6.010;2022-09-02T09:10:35;97325.72;;;28.99;34.57
55079;BME280;55187;49.496;6.010;2022-09-02T09:13:24;97316.19;;;28.20;35.21
55079;BME280;55187;49.496;6.010;2022-09-02T09:16:22;97319.03;;;28.15;35.38
55079;BME280;55187;49.496;6.010;2022-09-02T09:19:07;97314.84;;;28.09;39.36
55079;BME280;55187;49.496;6.010;2022-09-02T09:21:36;97308.72;;;28.03;35.90
55079;BME280;55187;49.496;6.010;2022-09-02T09:24:29;97315.09;;;28.21;36.01
55079;BME280;55187;49.496;6.010;2022-09-02T09:26:58;97315.53;;;27.51;35.82
55079;BME280;55187;49.496;6.010;2022-09-02T09:29:24;97311.22;;;28.14;35.24
55079;BME280;55187;49.496;6.010;2022-09-02T09:31:56;97313.31;;;28.62;37.04
55079;BME280;55187;49.496;6.010;2022-09-02T09:34:23;97309.13;;;28.56;35.93
55079;BME280;55187;49.496;6.010;2022-09-02T09:36:54;97308.41;;;28.05;35.92
55079;BME280;55187;49.496;6.010;2022-09-02T09:39:28;97308.03;;;28.88;34.22
55079;BME280;55187;49.496;6.010;2022-09-02T09:41:58;97306.94;;;29.29;34.15
55079;BME280;55187;49.496;6.010;2022-09-02T09:44:40;97311.16;;;29.04;40.12
55079;BME280;55187;49.496;6.010;2022-09-02T09:47:21;97311.16;;;28.50;34.34
55079;BME280;55187;49.496;6.010;2022-09-02T09:49:51;97305.44;;;29.14;35.97
55079;BME280;55187;49.496;6.010;2022-09-02T09:52:23;97296.94;;;27.94;36.18
55079;BME280;55187;49.496;6.010;2022-09-02T09:55:13;97288.22;;;26.73;36.94
55079;BME280;55187;49.496;6.010;2022-09-02T09:57:41;97292.78;;;27.33;36.08
55079;BME280;55187;49.496;6.010;2022-09-02T10:00:27;97284.50;;;29.32;33.56
55079;BME280;55187;49.496;6.010;2022-09-02T10:02:59;97294.72;;;28.55;33.59
55079;BME280;55187;49.496;6.010;2022-09-02T10:05:35;97282.69;;;27.75;34.39
55079;BME280;55187;49.496;6.010;2022-09-02T10:08:06;97277.56;;;28.55;36.00
55079;BME280;55187;49.496;6.010;2022-09-02T10:11:03;97267.03;;;27.80;33.75
55079;BME280;55187;49.496;6.010;2022-09-02T10:13:35;97271.34;;;28.18;34.27
55079;BME280;55187;49.496;6.010;2022-09-02T10:19:08;97277.16;;;29.01;31.82
55079;BME280;55187;49.496;6.010;2022-09-02T10:28:06;97256.41;;;27.84;33.38
55079;BME280;55187;49.496;6.010;2022-09-02T10:30:43;97250.91;;;26.65;34.16
55079;BME280;55187;49.496;6.010;2022-09-02T10:33:24;97239.03;;;27.44;34.00
55079;BME280;55187;49.496;6.010;2022-09-02T10:36:00;97233.91;;;26.26;34.39
55079;BME280;55187;49.496;6.010;2022-09-02T10:38:47;97230.22;;;25.03;36.81
55079;BME280;55187;49.496;6.010;2022-09-02T10:41:38;97236.63;;;24.59;38.07
55079;BME280;55187;49.496;6.010;2022-09-02T10:44:31;97230.63;;;24.91;37.61
55079;BME280;55187;49.496;6.010;2022-09-02T10:47:07;97224.22;;;25.87;37.59
55079;BME280;55187;49.496;6.010;2022-09-02T10:52:59;97227.63;;;24.05;36.88
55079;BME280;55187;49.496;6.010;2022-09-02T10:55:39;97231.44;;;23.60;38.26
55079;BME280;55187;49.496;6.010;2022-09-02T10:58:33;97219.97;;;23.34;37.44
55079;BME280;55187;49.496;6.010;2022-09-02T11:01:20;97218.63;;;22.66;38.60
55079;BME280;55187;49.496;6.010;2022-09-02T11:04:02;97220.31;;;23.22;38.42
55079;BME280;55187;49.496;6.010;2022-09-02T11:06:40;97227.69;;;23.01;38.33
55079;BME280;55187;49.496;6.010;2022-09-02T11:09:26;97213.03;;;23.22;38.07
55079;BME280;55187;49.496;6.010;2022-09-02T11:12:11;97219.06;;;23.49;37.24
55079;BME280;55187;49.496;6.010;2022-09-02T11:15:02;97223.31;;;24.04;38.55
55079;BME280;55187;49.496;6.010;2022-09-02T11:17:39;97233.25;;;23.80;38.58
55079;BME280;55187;49.496;6.010;2022-09-02T11:20:17;97225.69;;;23.27;38.50
55079;BME280;55187;49.496;6.010;2022-09-02T11:23:05;97232.72;;;23.23;38.41
55079;BME280;55187;49.496;6.010;2022-09-02T11:25:51;97224.91;;;23.16;37.27
55079;BME280;55187;49.496;6.010;2022-09-02T11:28:32;97227.28;;;23.33;37.79
55079;BME280;55187;49.496;6.010;2022-09-02T11:31:21;97215.97;;;23.26;37.59
55079;BME280;55187;49.496;6.010;2022-09-02T11:33:57;97214.50;;;22.89;37.93
55079;BME280;55187;49.496;6.010;2022-09-02T11:36:26;97208.94;;;23.25;38.26
55079;BME280;55187;49.496;6.010;2022-09-02T11:39:06;97218.78;;;23.06;39.10
55079;BME280;55187;49.496;6.010;2022-09-02T11:41:57;97209.84;;;23.10;39.27
55079;BME280;55187;49.496;6.010;2022-09-02T11:44:57;97206.38;;;23.54;39.82
55079;BME280;55187;49.496;6.010;2022-09-02T11:47:38;97204.72;;;23.09;39.32
55079;BME280;55187;49.496;6.010;2022-09-02T11:53:19;97194.56;;;23.40;37.68
55079;BME280;55187;49.496;6.010;2022-09-02T11:55:56;97197.03;;;23.76;39.33
55079;BME280;55187;49.496;6.010;2022-09-02T11:58:38;97191.09;;;23.74;38.04
55079;BME280;55187;49.496;6.010;2022-09-02T12:01:24;97201.06;;;23.78;39.47
55079;BME280;55187;49.496;6.010;2022-09-02T12:03:59;97188.13;;;23.75;37.82
55079;BME280;55187;49.496;6.010;2022-09-02T12:06:26;97183.75;;;23.84;39.65
55079;BME280;55187;49.496;6.010;2022-09-02T12:08:58;97181.38;;;23.78;38.07
55079;BME280;55187;49.496;6.010;2022-09-02T12:11:37;97176.03;;;23.62;38.36
55079;BME280;55187;49.496;6.010;2022-09-02T12:17:33;97182.97;;;23.74;36.54
55079;BME280;55187;49.496;6.010;2022-09-02T12:20:05;97175.63;;;23.45;37.79
55079;BME280;55187;49.496;6.010;2022-09-02T12:22:35;97182.25;;;23.63;37.18
55079;BME280;55187;49.496;6.010;2022-09-02T12:25:45;97166.84;;;23.63;36.94
55079;BME280;55187;49.496;6.010;2022-09-02T12:28:24;97168.91;;;23.82;37.37
55079;BME280;55187;49.496;6.010;2022-09-02T12:31:16;97160.28;;;23.80;37.49
55079;BME280;55187;49.496;6.010;2022-09-02T12:33:58;97158.50;;;23.60;37.58
55079;BME280;55187;49.496;6.010;2022-09-02T12:36:54;97154.91;;;23.75;37.37
55079;BME280;55187;49.496;6.010;2022-09-02T12:39:46;97162.13;;;23.84;37.02
55079;BME280;55187;49.496;6.010;2022-09-02T12:42:24;97155.72;;;23.70;36.78
55079;BME280;55187;49.496;6.010;2022-09-02T12:50:51;97134.28;;;23.50;37.55
55079;BME280;55187;49.496;6.010;2022-09-02T12:53:36;97138.72;;;23.70;38.12
55079;BME280;55187;49.496;6.010;2022-09-02T12:56:19;97129.19;;;23.43;36.37
55079;BME280;55187;49.496;6.010;2022-09-02T12:58:49;97123.09;;;23.27;37.56
55079;BME280;55187;49.496;6.010;2022-09-02T13:03:56;97123.09;;;23.61;37.14
55079;BME280;55187;49.496;6.010;2022-09-02T13:06:41;97120.72;;;23.55;35.99
55079;BME280;55187;49.496;6.010;2022-09-02T13:09:21;97116.44;;;23.49;36.56
55079;BME280;55187;49.496;6.010;2022-09-02T13:12:16;97118.13;;;23.74;37.86
55079;BME280;55187;49.496;6.010;2022-09-02T13:15:18;97112.19;;;23.72;36.58
55079;BME280;55187;49.496;6.010;2022-09-02T13:20:58;97114.38;;;23.75;37.23
55079;BME280;55187;49.496;6.010;2022-09-02T13:23:57;97119.81;;;23.70;37.60
55079;BME280;55187;49.496;6.010;2022-09-02T13:26:59;97118.44;;;23.72;36.77
55079;BME280;55187;49.496;6.010;2022-09-02T13:32:28;97108.81;;;23.56;35.87
55079;BME280;55187;49.496;6.010;2022-09-02T13:35:00;97112.03;;;23.63;35.79
55079;BME280;55187;49.496;6.010;2022-09-02T13:37:36;97120.44;;;23.56;36.16
55079;BME280;55187;49.496;6.010;2022-09-02T13:42:56;97104.84;;;23.48;36.34
55079;BME280;55187;49.496;6.010;2022-09-02T13:45:25;97091.84;;;23.50;38.19
55079;BME280;55187;49.496;6.010;2022-09-02T13:47:57;97096.97;;;23.52;38.27
55079;BME280;55187;49.496;6.010;2022-09-02T13:50:27;97099.00;;;23.36;38.48
55079;BME280;55187;49.496;6.010;2022-09-02T13:52:57;97096.19;;;23.46;37.63
55079;BME280;55187;49.496;6.010;2022-09-02T13:55:25;97094.41;;;23.36;36.44
55079;BME280;55187;49.496;6.010;2022-09-02T13:58:05;97097.91;;;23.37;37.72
55079;BME280;55187;49.496;6.010;2022-09-02T14:00:36;97098.19;;;23.35;39.44
55079;BME280;55187;49.496;6.010;2022-09-02T14:03:06;97090.78;;;23.12;38.24
55079;BME280;55187;49.496;6.010;2022-09-02T14:05:34;97084.91;;;23.39;37.30